createdAt,value
2022-11-25T00:01:34.384Z,18728.72
2022-11-25T00:04:03.049Z,18718.56
2022-11-25T00:06:33.851Z,18728.72
2022-11-25T00:09:11.519Z,18716.53
2022-11-25T00:11:42.335Z,18706.38
2022-11-25T00:14:15.266Z,18722.63
2022-11-25T00:16:47.958Z,18767.31
2022-11-25T00:19:17.000Z,18724.66
2022-11-25T00:21:45.187Z,18704.31
2022-11-25T00:24:17.211Z,18706.38
2022-11-25T00:26:45.674Z,18716.53
2022-11-25T00:29:14.882Z,18677.91
2022-11-25T00:31:43.321Z,18679.94
2022-11-25T00:34:14.335Z,18698.22
2022-11-25T00:36:42.686Z,18696.19
2022-11-25T00:39:15.724Z,18726.69
2022-11-25T00:42:02.570Z,18681.97
2022-11-25T00:44:37.550Z,18686.03
2022-11-25T00:47:09.863Z,18661.66
2022-11-25T00:49:41.097Z,18684.00
2022-11-25T00:52:10.813Z,18653.53
2022-11-25T00:54:40.308Z,18649.47
2022-11-25T00:57:08.427Z,18667.75
2022-11-25T00:59:36.525Z,18661.66
2022-11-25T01:02:04.716Z,18635.25
2022-11-25T01:04:33.163Z,18631.19
2022-11-25T01:07:02.233Z,18639.31
2022-11-25T01:09:30.919Z,18651.50
2022-11-25T01:12:00.724Z,18655.56
2022-11-25T01:14:28.841Z,18633.22
2022-11-25T01:16:56.993Z,18584.47
2022-11-25T01:19:25.636Z,18596.66
2022-11-25T01:21:53.762Z,18651.50
2022-11-25T01:24:23.920Z,18600.72
2022-11-25T01:26:52.361Z,18606.81
2022-11-25T01:29:21.884Z,18606.81
2022-11-25T01:31:50.480Z,18570.22
2022-11-25T01:34:22.402Z,18558.03
2022-11-25T01:36:51.079Z,18578.38
2022-11-25T01:39:26.866Z,18547.88
2022-11-25T01:41:58.467Z,18553.97
2022-11-25T01:44:33.709Z,18566.16
2022-11-25T01:47:08.045Z,18539.75
2022-11-25T01:49:42.009Z,18553.97
2022-11-25T01:52:18.829Z,18545.84
2022-11-25T01:54:54.760Z,18529.59
2022-11-25T01:57:30.225Z,18478.81
2022-11-25T02:00:03.982Z,18466.63
2022-11-25T02:02:32.960Z,18472.72
2022-11-25T02:05:02.869Z,18484.91
2022-11-25T02:07:37.617Z,18450.38
2022-11-25T02:10:10.879Z,18421.91
2022-11-25T02:12:42.580Z,18434.13
2022-11-25T02:15:14.482Z,18458.50
2022-11-25T02:17:43.846Z,18430.06
2022-11-25T02:20:15.607Z,18430.06
2022-11-25T02:22:57.761Z,18434.13
2022-11-25T02:25:30.148Z,18415.81
2022-11-25T02:28:04.806Z,18434.13
2022-11-25T02:30:33.600Z,18395.50
2022-11-25T02:33:02.500Z,18430.06
2022-11-25T02:35:34.714Z,18401.59
2022-11-25T02:38:09.671Z,18399.56
2022-11-25T02:40:47.132Z,18419.88
2022-11-25T02:43:15.414Z,18403.63
2022-11-25T02:45:52.704Z,18381.28
2022-11-25T02:48:34.515Z,18391.44
2022-11-25T02:51:12.912Z,18407.69
2022-11-25T02:53:41.883Z,18405.66
2022-11-25T02:56:14.007Z,18381.28
2022-11-25T02:58:42.919Z,18440.22
2022-11-25T03:01:11.598Z,18367.06
2022-11-25T03:03:40.613Z,18381.28
2022-11-25T03:06:09.627Z,18395.50
2022-11-25T03:08:38.554Z,18391.44
2022-11-25T03:11:07.443Z,18373.16
2022-11-25T03:13:37.028Z,18367.06
2022-11-25T03:16:05.935Z,18367.06
2022-11-25T03:18:34.400Z,18375.19
2022-11-25T03:21:02.799Z,18395.50
2022-11-25T03:23:31.268Z,18358.94
2022-11-25T03:25:59.347Z,18379.25
2022-11-25T03:28:27.501Z,18338.63
2022-11-25T03:30:56.965Z,18356.91
2022-11-25T03:33:25.080Z,18367.06
2022-11-25T03:35:53.216Z,18369.09
2022-11-25T03:38:21.370Z,18342.69
2022-11-25T03:40:50.243Z,18358.94
2022-11-25T03:43:18.365Z,18365.03
2022-11-25T03:45:50.166Z,18346.75
2022-11-25T03:48:19.721Z,18340.66
2022-11-25T03:50:49.708Z,18360.97
2022-11-25T03:53:17.797Z,18328.47
2022-11-25T03:55:48.560Z,18342.69
2022-11-25T03:58:16.710Z,18371.13
2022-11-25T04:00:44.938Z,18318.31
2022-11-25T04:03:13.079Z,18326.44
2022-11-25T04:05:43.211Z,18360.97
2022-11-25T04:08:11.421Z,18350.81
2022-11-25T04:10:39.531Z,18312.22
2022-11-25T04:13:06.671Z,18326.44
2022-11-25T04:15:34.779Z,18324.41
2022-11-25T04:18:02.945Z,18365.03
2022-11-25T04:20:31.030Z,18340.66
2022-11-25T04:23:00.495Z,18354.88
2022-11-25T04:25:28.619Z,18363.00
2022-11-25T04:27:56.794Z,18375.19
2022-11-25T04:30:24.994Z,18342.69
2022-11-25T04:32:53.441Z,18363.00
2022-11-25T04:35:21.603Z,18354.88
2022-11-25T04:37:49.867Z,18334.56
2022-11-25T04:40:19.747Z,18340.66
2022-11-25T04:42:48.199Z,18344.72
2022-11-25T04:45:23.379Z,18363.00
2022-11-25T04:47:52.776Z,18346.75
2022-11-25T04:50:24.444Z,18342.69
2022-11-25T04:52:52.664Z,18336.59
2022-11-25T04:55:22.152Z,18346.75
2022-11-25T04:57:50.263Z,18336.59
2022-11-25T05:00:19.584Z,18340.66
2022-11-25T05:02:47.779Z,18371.13
2022-11-25T05:05:16.712Z,18354.88
2022-11-25T05:07:44.861Z,18356.91
2022-11-25T05:10:13.115Z,18342.69
2022-11-25T05:12:42.650Z,18375.19
2022-11-25T05:15:12.201Z,18350.81
2022-11-25T05:17:41.404Z,18348.78
2022-11-25T05:20:12.002Z,18387.38
2022-11-25T05:22:40.347Z,18373.16
2022-11-25T05:25:10.708Z,18330.50
2022-11-25T05:27:38.806Z,18308.16
2022-11-25T05:30:11.486Z,18352.84
2022-11-25T05:32:40.448Z,18375.19
2022-11-25T05:35:09.574Z,18371.13
2022-11-25T05:37:37.642Z,18377.22
2022-11-25T05:40:07.624Z,18381.28
2022-11-25T05:42:35.739Z,18338.63
2022-11-25T05:45:04.108Z,18365.03
2022-11-25T05:47:33.672Z,18367.06
2022-11-25T05:50:01.823Z,18358.94
2022-11-25T05:52:29.917Z,18354.88
2022-11-25T05:54:58.031Z,18352.84
2022-11-25T05:57:26.240Z,18377.22
2022-11-25T05:59:54.341Z,18365.03
2022-11-25T06:02:22.487Z,18363.00
2022-11-25T06:04:51.979Z,18358.94
2022-11-25T06:07:20.134Z,18340.66
2022-11-25T06:09:48.230Z,18346.75
2022-11-25T06:12:16.365Z,18375.19
2022-11-25T06:14:44.493Z,18379.25
2022-11-25T06:17:12.618Z,18363.00
2022-11-25T06:19:40.736Z,18358.94
2022-11-25T06:22:10.228Z,18344.72
2022-11-25T06:24:38.493Z,18342.69
2022-11-25T06:27:07.050Z,18332.53
2022-11-25T06:29:35.713Z,18393.47
2022-11-25T06:32:03.923Z,18363.00
2022-11-25T06:34:32.126Z,18354.88
2022-11-25T06:37:00.244Z,18342.69
2022-11-25T06:39:29.708Z,18302.06
2022-11-25T06:41:57.841Z,18352.84
2022-11-25T06:44:25.959Z,18328.47
2022-11-25T06:46:54.230Z,18383.31
2022-11-25T06:49:22.482Z,18358.94
2022-11-25T06:51:51.159Z,18373.16
2022-11-25T06:54:19.304Z,18377.22
2022-11-25T06:56:51.667Z,18356.91
2022-11-25T06:59:20.776Z,18356.91
2022-11-25T07:01:48.915Z,18367.06
2022-11-25T07:04:17.109Z,18356.91
2022-11-25T07:06:45.220Z,18363.00
2022-11-25T07:09:13.330Z,18389.41
2022-11-25T07:11:42.872Z,18407.69
2022-11-25T07:14:16.101Z,18385.34
2022-11-25T07:16:46.644Z,18340.66
2022-11-25T07:19:17.698Z,18385.34
2022-11-25T07:21:47.232Z,18383.31
2022-11-25T07:24:18.336Z,18371.13
2022-11-25T07:26:46.939Z,18373.16
2022-11-25T07:29:44.386Z,18393.47
2022-11-25T07:32:10.482Z,18419.88
2022-11-25T07:34:39.348Z,18391.44
2022-11-25T07:37:08.053Z,18407.69
2022-11-25T07:39:36.604Z,18413.78
2022-11-25T07:42:05.439Z,18411.75
2022-11-25T07:44:35.145Z,18421.91
2022-11-25T07:47:03.301Z,18446.31
2022-11-25T07:49:31.397Z,18415.81
2022-11-25T07:52:02.251Z,18484.91
2022-11-25T07:54:30.979Z,18482.88
2022-11-25T07:56:59.122Z,18484.91
2022-11-25T07:59:27.307Z,18484.91
2022-11-25T08:01:57.497Z,18570.22
2022-11-25T08:04:26.067Z,18525.53
2022-11-25T08:06:55.658Z,18560.06
2022-11-25T08:09:25.400Z,18547.88
2022-11-25T08:11:54.782Z,18619.00
2022-11-25T08:14:22.910Z,18635.25
2022-11-25T08:16:51.060Z,18655.56
2022-11-25T08:19:20.669Z,18614.94
2022-11-25T08:21:48.817Z,18643.38
2022-11-25T08:24:20.709Z,18694.16
2022-11-25T08:26:51.022Z,18655.56
2022-11-25T08:29:20.796Z,18635.25
2022-11-25T08:31:49.125Z,18657.59
2022-11-25T08:34:23.340Z,18684.00
2022-11-25T08:36:52.292Z,18655.56
2022-11-25T08:39:50.496Z,18649.47
2022-11-25T08:42:11.097Z,18679.94
2022-11-25T08:44:39.221Z,18635.25
2022-11-25T08:47:07.395Z,18681.97
2022-11-25T08:49:41.369Z,18696.19
2022-11-25T08:52:10.335Z,18686.03
2022-11-25T08:54:39.710Z,18692.13
2022-11-25T08:57:08.050Z,18692.13
2022-11-25T08:59:36.535Z,18686.03
2022-11-25T09:02:05.616Z,18744.97
2022-11-25T09:04:34.070Z,18773.41
2022-11-25T09:07:05.580Z,18785.59
2022-11-25T09:09:33.727Z,18789.66
2022-11-25T09:12:01.862Z,18757.16
2022-11-25T09:14:30.019Z,18803.88
2022-11-25T09:16:58.098Z,18830.31
2022-11-25T09:19:26.117Z,18842.50
2022-11-25T09:21:54.346Z,18879.06
2022-11-25T09:24:24.033Z,18889.22
2022-11-25T09:26:52.918Z,18879.06
2022-11-25T09:29:21.358Z,18885.16
2022-11-25T09:31:54.534Z,18846.56
2022-11-25T09:34:23.141Z,18875.00
2022-11-25T09:36:51.502Z,18844.53
2022-11-25T09:39:19.656Z,18879.06
2022-11-25T09:42:24.166Z,18850.63
2022-11-25T09:45:32.147Z,18889.22
2022-11-25T09:48:20.321Z,18940.03
2022-11-25T09:51:14.125Z,18964.41
2022-11-25T09:53:47.797Z,18948.16
2022-11-25T09:56:35.698Z,18938.00
2022-11-25T09:59:15.196Z,18931.91
2022-11-25T10:01:51.566Z,18946.13
2022-11-25T10:04:26.758Z,18958.31
2022-11-25T10:07:01.086Z,18982.69
2022-11-25T10:09:35.282Z,18962.38
2022-11-25T10:12:25.885Z,18974.56
2022-11-25T10:15:02.807Z,18982.69
2022-11-25T10:17:43.139Z,18929.88
2022-11-25T10:20:20.898Z,18986.75
2022-11-25T10:22:53.117Z,18962.38
2022-11-25T10:25:25.209Z,18996.91
2022-11-25T10:28:00.754Z,18990.81
2022-11-25T10:30:42.994Z,19013.16
2022-11-25T10:33:21.904Z,19025.38
2022-11-25T10:35:54.689Z,19066.00
2022-11-25T10:38:29.824Z,19047.72
2022-11-25T10:40:58.352Z,19072.09
2022-11-25T10:43:31.520Z,19082.25
2022-11-25T10:46:17.470Z,19092.41
2022-11-25T10:49:01.517Z,19078.19
2022-11-25T10:51:41.199Z,19070.06
2022-11-25T10:54:16.938Z,19043.66
2022-11-25T10:56:53.462Z,19084.28
2022-11-25T10:59:30.112Z,19076.16
2022-11-25T11:02:20.401Z,19106.66
2022-11-25T11:04:58.168Z,19131.03
2022-11-25T11:07:28.676Z,19080.22
2022-11-25T11:22:33.195Z,19090.38
2022-11-25T11:25:27.000Z,19072.09
2022-11-25T11:27:56.038Z,19106.66
2022-11-25T11:30:31.169Z,19143.22
2022-11-25T11:33:05.874Z,19133.06
2022-11-25T11:35:51.206Z,19137.13
2022-11-25T11:38:33.611Z,19151.34
2022-11-25T11:41:18.936Z,19143.22
2022-11-25T11:44:20.987Z,19161.50
2022-11-25T11:47:10.366Z,19171.66
2022-11-25T11:50:17.767Z,19151.34
2022-11-25T11:52:58.247Z,19159.47
2022-11-25T11:56:26.843Z,19192.00
2022-11-25T11:59:07.720Z,19187.91
2022-11-25T12:01:50.444Z,19206.22
2022-11-25T12:04:27.082Z,19196.06
2022-11-25T12:07:06.738Z,19206.22
2022-11-25T12:09:46.196Z,19224.50
2022-11-25T12:12:20.966Z,19228.56
2022-11-25T12:14:55.015Z,19200.13
2022-11-25T12:17:32.990Z,19232.63
2022-11-25T12:20:14.317Z,19222.47
2022-11-25T12:22:54.163Z,19206.22
2022-11-25T12:25:26.714Z,19220.44
2022-11-25T12:28:04.279Z,19204.19
2022-11-25T12:30:39.311Z,19212.31
2022-11-25T12:33:16.187Z,19185.88
2022-11-25T12:36:03.482Z,19194.03
2022-11-25T12:38:43.619Z,19173.69
2022-11-25T12:41:25.517Z,19218.41
2022-11-25T12:44:02.241Z,19179.78
2022-11-25T12:46:38.775Z,19218.41
2022-11-25T12:49:16.914Z,19196.06
2022-11-25T12:52:46.638Z,19212.31
2022-11-25T12:55:19.450Z,19228.56
2022-11-25T12:58:31.196Z,19210.28
2022-11-25T13:01:47.880Z,19202.16
2022-11-25T13:05:18.447Z,19220.44
2022-11-25T13:08:04.802Z,19155.41
2022-11-25T13:11:01.424Z,19181.81
2022-11-25T13:13:47.722Z,19179.78
2022-11-25T13:16:20.633Z,19151.34
2022-11-25T13:18:49.663Z,19189.97
2022-11-25T13:21:20.676Z,19192.00
2022-11-25T13:23:52.505Z,19200.13
2022-11-25T13:26:51.140Z,19198.09
2022-11-25T13:30:02.153Z,19196.06
2022-11-25T13:32:42.291Z,19216.38
2022-11-25T13:35:52.525Z,19171.66
2022-11-25T13:39:06.489Z,19185.88
2022-11-25T13:41:48.289Z,19171.66
2022-11-25T13:44:28.418Z,19179.78
2022-11-25T13:46:59.501Z,19169.63
2022-11-25T13:49:41.778Z,19137.13
2022-11-25T13:52:38.052Z,19124.94
2022-11-25T13:55:32.346Z,19106.66
2022-11-25T13:58:20.360Z,19106.66
2022-11-25T14:01:05.821Z,19102.56
2022-11-25T14:04:00.271Z,19082.25
2022-11-25T14:07:02.756Z,19114.78
2022-11-25T14:10:17.196Z,19092.41
2022-11-25T14:13:19.361Z,19074.13
2022-11-25T14:16:14.313Z,19049.75
2022-11-25T14:22:44.816Z,19017.25
2022-11-25T14:25:23.622Z,19011.13
2022-11-25T14:28:03.829Z,19015.19
2022-11-25T14:30:33.983Z,18988.78
2022-11-25T14:33:11.361Z,19007.06
2022-11-25T14:35:49.206Z,18994.88
2022-11-25T14:38:26.072Z,18986.75
2022-11-25T14:41:01.587Z,18988.78
2022-11-25T14:43:38.459Z,18950.19
2022-11-25T14:46:16.692Z,18976.59
2022-11-25T14:48:45.793Z,18970.50
2022-11-25T14:51:14.977Z,18950.19
2022-11-25T14:53:48.761Z,18964.41
2022-11-25T14:56:25.098Z,19003.00
2022-11-25T14:58:56.810Z,18942.06
2022-11-25T15:01:28.094Z,18944.09
2022-11-25T15:04:05.949Z,18919.69
2022-11-25T15:06:39.166Z,18911.56
2022-11-25T15:09:22.694Z,18929.88
2022-11-25T15:11:57.525Z,18895.31
2022-11-25T15:14:29.812Z,18909.53
2022-11-25T15:16:59.692Z,18887.19
2022-11-25T15:19:35.293Z,18883.13
2022-11-25T15:22:22.360Z,18905.47
2022-11-25T15:24:56.434Z,18872.97
2022-11-25T15:27:27.623Z,18885.16
2022-11-25T15:29:58.946Z,18858.75
2022-11-25T15:32:29.528Z,18838.44
2022-11-25T15:35:01.272Z,18885.16
2022-11-25T15:37:30.554Z,18860.78
2022-11-25T15:40:37.156Z,18848.59
2022-11-25T15:43:20.946Z,18826.25
2022-11-25T15:45:55.297Z,18805.91
2022-11-25T15:48:30.250Z,18832.34
2022-11-25T15:51:06.975Z,18830.31
2022-11-25T15:53:39.153Z,18832.34
2022-11-25T15:56:14.988Z,18807.94
2022-11-25T15:58:43.720Z,18828.28
2022-11-25T16:01:23.646Z,18775.44
2022-11-25T16:03:53.046Z,18803.88
2022-11-25T16:06:24.503Z,18779.50
2022-11-25T16:08:58.003Z,18791.69
2022-11-25T16:11:33.312Z,18767.31
2022-11-25T16:14:23.975Z,18773.41
2022-11-25T16:16:52.663Z,18781.53
2022-11-25T16:19:26.429Z,18744.97
2022-11-25T16:22:02.743Z,18775.44
2022-11-25T16:25:00.576Z,18785.59
2022-11-25T16:27:32.192Z,18720.59
2022-11-25T16:30:19.782Z,18744.97
2022-11-25T16:32:47.877Z,18716.53
2022-11-25T16:35:19.262Z,18696.19
2022-11-25T16:37:49.427Z,18708.41
2022-11-25T16:40:20.056Z,18730.75
2022-11-25T16:42:53.284Z,18716.53
2022-11-25T16:45:25.087Z,18700.25
2022-11-25T16:47:53.573Z,18690.09
2022-11-25T16:50:23.492Z,18710.44
2022-11-25T16:52:51.601Z,18690.09
2022-11-25T16:55:19.740Z,18639.31
2022-11-25T16:57:50.510Z,18653.53
2022-11-25T17:00:19.377Z,18663.69
2022-11-25T17:02:47.500Z,18653.53
2022-11-25T17:05:20.111Z,18659.63
2022-11-25T17:07:50.169Z,18639.31
2022-11-25T17:10:19.620Z,18651.50
2022-11-25T17:12:50.447Z,18614.94
2022-11-25T17:15:24.785Z,18649.47
2022-11-25T17:17:53.307Z,18627.13
2022-11-25T17:20:25.539Z,18639.31
2022-11-25T17:22:54.794Z,18608.84
2022-11-25T17:25:25.773Z,18596.66
2022-11-25T17:27:56.420Z,18614.94
2022-11-25T17:30:28.634Z,18623.06
2022-11-25T17:33:03.623Z,18582.44
2022-11-25T17:35:31.960Z,18537.72
2022-11-25T17:38:01.609Z,18574.28
2022-11-25T17:40:29.857Z,18604.78
2022-11-25T17:42:59.336Z,18582.44
2022-11-25T17:45:27.495Z,18560.06
2022-11-25T17:47:55.623Z,18549.91
2022-11-25T17:50:26.897Z,18560.06
2022-11-25T17:52:55.014Z,18580.41
2022-11-25T17:55:23.628Z,18531.63
2022-11-25T17:57:52.260Z,18598.69
2022-11-25T18:00:24.795Z,18576.31
2022-11-25T18:02:53.096Z,18576.31
2022-11-25T18:05:24.263Z,18580.41
2022-11-25T18:07:52.800Z,18590.56
2022-11-25T18:10:25.035Z,18572.25
2022-11-25T18:12:56.577Z,18553.97
2022-11-25T18:15:32.322Z,18580.41
2022-11-25T18:18:04.707Z,18582.44
2022-11-25T18:20:34.290Z,18556.00
2022-11-25T18:23:02.939Z,18570.22
2022-11-25T18:25:35.132Z,18547.88
2022-11-25T18:28:05.967Z,18562.09
2022-11-25T18:30:39.379Z,18578.38
2022-11-25T18:33:13.465Z,18586.50
2022-11-25T18:35:42.871Z,18545.84
2022-11-25T18:38:11.714Z,18513.34
2022-11-25T18:40:47.635Z,18533.66
2022-11-25T18:43:24.818Z,18549.91
2022-11-25T18:45:55.594Z,18564.13
2022-11-25T18:48:26.301Z,18570.22
2022-11-25T18:50:57.379Z,18576.31
2022-11-25T18:53:25.679Z,18588.53
2022-11-25T18:55:53.868Z,18568.19
2022-11-25T18:58:26.969Z,18578.38
2022-11-25T19:01:04.975Z,18594.63
2022-11-25T19:03:33.720Z,18590.56
2022-11-25T19:06:03.188Z,18598.69
2022-11-25T19:08:31.645Z,18556.00
2022-11-25T19:10:59.724Z,18547.88
2022-11-25T19:13:32.792Z,18582.44
2022-11-25T19:16:08.546Z,18576.31
2022-11-25T19:18:37.126Z,18572.25
2022-11-25T19:21:05.688Z,18564.13
2022-11-25T19:23:35.958Z,18566.16
2022-11-25T19:26:14.420Z,18594.63
2022-11-25T19:28:46.399Z,18600.72
2022-11-25T19:31:17.250Z,18590.56
2022-11-25T19:33:51.426Z,18586.50
2022-11-25T19:36:25.575Z,18610.88
2022-11-25T19:38:54.788Z,18612.91
2022-11-25T19:41:22.910Z,18621.03
2022-11-25T19:43:51.239Z,18596.66
2022-11-25T19:46:33.287Z,18586.50
2022-11-25T19:49:07.891Z,18576.31
2022-11-25T19:51:36.541Z,18602.75
2022-11-25T19:54:05.175Z,18586.50
2022-11-25T19:56:33.413Z,18564.13
2022-11-25T19:59:01.546Z,18623.06
2022-11-25T20:01:35.450Z,18580.41
2022-11-25T20:04:04.761Z,18586.50
2022-11-25T20:06:33.837Z,18596.66
2022-11-25T20:09:07.539Z,18568.19
2022-11-25T20:11:36.767Z,18584.47
2022-11-25T20:14:06.482Z,18588.53
2022-11-25T20:16:39.725Z,18578.38
2022-11-25T20:19:15.183Z,18631.19
2022-11-25T20:21:44.453Z,18598.69
2022-11-25T20:24:17.578Z,18594.63
2022-11-25T20:26:48.440Z,18574.28
2022-11-25T20:29:19.801Z,18590.56
2022-11-25T20:31:49.962Z,18588.53
2022-11-25T20:34:18.140Z,18564.13
2022-11-25T20:36:46.494Z,18578.38
2022-11-25T20:39:20.044Z,18608.84
2022-11-25T20:41:51.300Z,18560.06
2022-11-25T20:44:21.692Z,18562.09
2022-11-25T20:46:51.161Z,18566.16
2022-11-25T20:49:25.581Z,18586.50
2022-11-25T20:51:54.227Z,18562.09
2022-11-25T20:54:23.941Z,18539.75
2022-11-25T20:56:52.104Z,18598.69
2022-11-25T20:59:23.313Z,18594.63
2022-11-25T21:01:54.490Z,18629.16
2022-11-25T21:04:23.169Z,18616.97
2022-11-25T21:06:51.250Z,18588.53
2022-11-25T21:09:25.484Z,18566.16
2022-11-25T21:11:53.698Z,18576.31
2022-11-25T21:14:22.319Z,18578.38
2022-11-25T21:16:51.822Z,18616.97
2022-11-25T21:19:19.945Z,18549.91
2022-11-25T21:21:51.688Z,18545.84
2022-11-25T21:24:32.723Z,18612.91
2022-11-25T21:27:09.931Z,18553.97
2022-11-25T21:29:43.178Z,18578.38
2022-11-25T21:32:21.647Z,18553.97
2022-11-25T21:34:50.444Z,18578.38
2022-11-25T21:37:26.687Z,18553.97
2022-11-25T21:39:55.147Z,18572.25
2022-11-25T21:42:23.777Z,18586.50
2022-11-25T21:44:53.609Z,18537.72
2022-11-25T21:47:26.343Z,18566.16
2022-11-25T21:49:55.061Z,18580.41
2022-11-25T21:52:23.207Z,18560.06
2022-11-25T21:54:51.305Z,18574.28
2022-11-25T21:57:27.899Z,18558.03
2022-11-25T21:59:56.637Z,18566.16
2022-11-25T22:02:26.522Z,18553.97
2022-11-25T22:04:55.883Z,18576.31
2022-11-25T22:07:29.229Z,18519.44
2022-11-25T22:10:00.319Z,18547.88
2022-11-25T22:12:34.282Z,18545.84
2022-11-25T22:15:05.995Z,18539.75
2022-11-25T22:17:35.494Z,18509.28
2022-11-25T22:20:04.898Z,18521.47
2022-11-25T22:22:33.581Z,18501.16
2022-11-25T22:25:02.149Z,18519.44
2022-11-25T22:27:36.206Z,18491.00
2022-11-25T22:30:05.251Z,18501.16
2022-11-25T22:32:34.725Z,18474.75
2022-11-25T22:35:02.868Z,18470.69
2022-11-25T22:37:33.987Z,18468.66
2022-11-25T22:40:02.094Z,18436.16
2022-11-25T22:42:33.426Z,18476.78
2022-11-25T22:45:05.630Z,18474.75
2022-11-25T22:47:41.979Z,18452.41
2022-11-25T22:50:22.681Z,18501.16
2022-11-25T22:52:52.751Z,18466.63
2022-11-25T22:55:24.874Z,18460.53
2022-11-25T22:57:55.669Z,18452.41
2022-11-25T23:00:27.012Z,18470.69
2022-11-25T23:02:59.290Z,18442.25
2022-11-25T23:05:32.958Z,18478.81
2022-11-25T23:08:02.648Z,18448.34
2022-11-25T23:10:32.755Z,18495.06
2022-11-25T23:13:00.873Z,18423.94
2022-11-25T23:15:29.982Z,18474.75
2022-11-25T23:18:02.637Z,18442.25
2022-11-25T23:20:34.241Z,18470.69
2022-11-25T23:23:14.121Z,18497.09
2022-11-25T23:25:42.523Z,18501.16
2022-11-25T23:28:11.078Z,18493.03
2022-11-25T23:30:44.563Z,18517.41
2022-11-25T23:33:22.763Z,18497.09
2022-11-25T23:35:50.939Z,18521.47
2022-11-25T23:38:24.602Z,18513.34
2022-11-25T23:40:53.207Z,18503.19
2022-11-25T23:43:21.995Z,18482.88
2022-11-25T23:45:54.379Z,18519.44
2022-11-25T23:48:30.083Z,18529.59
2022-11-25T23:51:01.257Z,18507.25
2022-11-25T23:53:37.539Z,18529.59
2022-11-25T23:56:06.610Z,18525.53
2022-11-25T23:58:34.731Z,18513.34
